createdAt,value
2019-05-30T00:00:05.852Z,2.73
2019-05-30T00:04:56.509Z,2.40
2019-05-30T00:10:00.884Z,2.60
2019-05-30T00:15:06.632Z,2.30
2019-05-30T00:20:11.300Z,2.67
2019-05-30T00:25:15.558Z,2.30
2019-05-30T00:30:24.261Z,2.70
2019-05-30T00:35:25.339Z,2.60
2019-05-30T00:40:30.524Z,2.57
2019-05-30T00:45:34.719Z,2.30
2019-05-30T00:50:39.022Z,2.20
2019-05-30T00:55:42.935Z,2.30
2019-05-30T01:00:47.059Z,2.17
2019-05-30T01:05:54.740Z,2.50
2019-05-30T01:10:58.997Z,2.63
2019-05-30T01:16:03.442Z,2.27
2019-05-30T01:21:07.740Z,2.17
2019-05-30T01:26:11.736Z,2.20
2019-05-30T01:31:16.682Z,2.60
2019-05-30T01:36:21.111Z,2.50
2019-05-30T01:41:25.308Z,2.30
2019-05-30T01:46:29.199Z,2.43
2019-05-30T01:51:33.431Z,2.37
2019-05-30T01:56:37.534Z,2.40
2019-05-30T02:01:41.994Z,2.47
2019-05-30T02:06:45.946Z,2.60
2019-05-30T02:11:51.174Z,2.67
2019-05-30T02:16:55.512Z,2.30
2019-05-30T02:21:59.790Z,2.10
2019-05-30T02:27:04.169Z,2.27
2019-05-30T02:32:09.219Z,2.20
2019-05-30T02:37:14.188Z,2.00
2019-05-30T02:42:20.011Z,2.30
2019-05-30T02:47:24.310Z,2.30
2019-05-30T02:52:28.254Z,2.30
2019-05-30T02:57:32.138Z,2.40
2019-05-30T03:02:36.012Z,2.23
2019-05-30T03:07:40.257Z,2.30
2019-05-30T03:12:44.109Z,2.40
2019-05-30T03:17:48.246Z,2.40
2019-05-30T03:22:52.100Z,2.40
2019-05-30T03:27:56.297Z,2.60
2019-05-30T03:33:06.957Z,2.27
2019-05-30T03:38:08.730Z,2.30
2019-05-30T03:43:13.841Z,2.30
2019-05-30T03:48:19.868Z,2.47
2019-05-30T03:53:23.808Z,2.40
2019-05-30T03:58:31.921Z,2.30
2019-05-30T04:03:44.716Z,2.23
2019-05-30T04:08:51.840Z,2.30
2019-05-30T04:13:57.350Z,2.30
2019-05-30T04:19:01.556Z,2.27
2019-05-30T04:24:07.365Z,2.10
2019-05-30T04:29:12.369Z,2.10
2019-05-30T04:34:19.500Z,2.30
2019-05-30T04:39:23.312Z,2.53
2019-05-30T04:44:27.739Z,2.40
2019-05-30T04:49:33.962Z,2.37
2019-05-30T04:54:38.468Z,2.50
2019-05-30T04:59:42.705Z,2.67
2019-05-30T05:04:46.895Z,2.57
2019-05-30T05:09:50.869Z,2.50
2019-05-30T05:14:55.006Z,2.70
2019-05-30T05:19:59.135Z,2.40
2019-05-30T05:25:03.998Z,2.53
2019-05-30T05:30:09.371Z,2.70
2019-05-30T05:35:14.775Z,2.60
2019-05-30T05:40:18.721Z,2.63
2019-05-30T05:45:22.949Z,2.70
2019-05-30T05:50:28.552Z,2.80
2019-05-30T05:55:33.339Z,2.77
2019-05-30T06:00:37.615Z,2.50
2019-05-30T06:05:52.563Z,2.60
2019-05-30T06:10:48.006Z,3.00
2019-05-30T06:15:52.334Z,3.00
2019-05-30T06:20:56.178Z,2.80
2019-05-30T06:26:00.382Z,2.73
2019-05-30T06:31:05.631Z,2.60
2019-05-30T06:36:09.906Z,2.90
2019-05-30T06:41:14.102Z,2.87
2019-05-30T06:46:17.973Z,2.77
2019-05-30T06:51:22.827Z,2.57
2019-05-30T06:56:27.445Z,2.60
2019-05-30T07:01:32.186Z,2.67
2019-05-30T07:06:36.899Z,2.60
2019-05-30T07:11:42.574Z,2.60
2019-05-30T07:16:46.440Z,2.70
2019-05-30T07:21:50.804Z,2.67
2019-05-30T07:26:54.994Z,2.63
2019-05-30T07:31:59.305Z,2.27
2019-05-30T07:37:03.250Z,2.40
2019-05-30T07:42:07.364Z,2.40
2019-05-30T07:47:11.555Z,2.17
2019-05-30T07:52:15.507Z,2.40
2019-05-30T07:57:19.373Z,2.70
2019-05-30T08:02:23.263Z,2.30
2019-05-30T08:07:27.123Z,2.27
2019-05-30T08:12:32.053Z,2.60
2019-05-30T08:17:37.719Z,2.10
2019-05-30T08:22:42.438Z,2.30
2019-05-30T08:27:46.642Z,2.33
2019-05-30T08:32:50.604Z,2.30
2019-05-30T08:37:54.802Z,2.63
2019-05-30T08:42:59.005Z,2.53
2019-05-30T08:48:03.302Z,2.57
2019-05-30T08:53:07.486Z,2.60
2019-05-30T08:58:11.360Z,2.50
2019-05-30T09:03:15.466Z,2.27
2019-05-30T09:08:19.654Z,2.53
2019-05-30T09:13:24.877Z,2.40
2019-05-30T09:18:28.747Z,2.33
2019-05-30T09:23:33.171Z,2.30
2019-05-30T09:28:37.769Z,2.37
2019-05-30T09:33:42.859Z,2.97
2019-05-30T09:38:47.520Z,2.40
2019-05-30T09:43:51.533Z,2.70
2019-05-30T09:48:56.049Z,2.23
2019-05-30T09:54:00.003Z,2.20
2019-05-30T09:59:04.187Z,2.20
2019-05-30T10:04:08.658Z,2.53
2019-05-30T10:09:12.615Z,2.70
2019-05-30T10:14:16.477Z,2.50
2019-05-30T10:19:20.354Z,2.40
2019-05-30T10:24:24.214Z,2.17
2019-05-30T10:29:28.315Z,2.50
2019-05-30T10:34:32.418Z,2.40
2019-05-30T10:39:36.338Z,2.40
2019-05-30T10:44:40.210Z,2.33
2019-05-30T10:49:46.200Z,2.17
2019-05-30T10:54:51.497Z,2.20
2019-05-30T10:59:56.784Z,2.47
2019-05-30T11:05:01.198Z,2.40
2019-05-30T11:10:11.423Z,2.20
2019-05-30T11:15:15.746Z,2.40
2019-05-30T11:20:21.454Z,2.20
2019-05-30T11:25:28.099Z,2.10
2019-05-30T11:30:32.466Z,2.30
2019-05-30T11:35:36.689Z,2.13
2019-05-30T11:40:40.547Z,2.10
2019-05-30T11:45:44.739Z,2.03
2019-05-30T11:50:50.462Z,2.20
2019-05-30T11:55:56.135Z,3.30
2019-05-30T12:01:00.597Z,2.20
2019-05-30T12:06:04.669Z,1.90
2019-05-30T12:11:08.525Z,2.07
2019-05-30T12:16:15.965Z,2.03
2019-05-30T12:21:20.468Z,2.10
2019-05-30T12:26:24.688Z,1.97
2019-05-30T12:31:29.282Z,2.00
2019-05-30T12:36:33.873Z,2.10
2019-05-30T12:41:37.834Z,2.00
2019-05-30T12:46:42.028Z,2.10
2019-05-30T12:51:46.170Z,2.30
2019-05-30T12:56:50.311Z,2.00
2019-05-30T13:01:54.761Z,2.20
2019-05-30T13:06:59.420Z,2.10
2019-05-30T13:12:04.134Z,2.00
2019-05-30T13:17:08.006Z,1.80
2019-05-30T13:22:12.196Z,1.70
2019-05-30T13:27:16.379Z,1.90
2019-05-30T13:32:20.242Z,1.80
2019-05-30T13:37:24.098Z,1.90
2019-05-30T13:42:27.986Z,2.03
2019-05-30T13:47:32.545Z,1.90
2019-05-30T13:57:40.815Z,2.10
2019-05-30T14:02:44.944Z,1.90
2019-05-30T14:07:49.381Z,2.13
2019-05-30T14:12:53.330Z,1.90
2019-05-30T14:17:58.842Z,2.43
2019-05-30T14:23:03.316Z,2.00
2019-05-30T14:28:07.882Z,1.70
2019-05-30T14:33:12.342Z,1.63
2019-05-30T14:38:16.689Z,1.80
2019-05-30T14:43:20.984Z,2.30
2019-05-30T14:48:25.062Z,2.23
2019-05-30T14:53:29.488Z,2.30
2019-05-30T14:58:33.775Z,2.33
2019-05-30T15:03:37.633Z,2.60
2019-05-30T15:08:41.836Z,2.70
2019-05-30T15:13:45.738Z,2.77
2019-05-30T15:18:49.911Z,2.30
2019-05-30T15:23:53.775Z,2.30
2019-05-30T15:28:57.977Z,2.60
2019-05-30T15:34:03.056Z,2.47
2019-05-30T15:39:08.854Z,2.60
2019-05-30T15:44:13.650Z,2.80
2019-05-30T15:49:18.452Z,2.40
2019-05-30T15:54:22.978Z,2.60
2019-05-30T15:59:26.946Z,2.98
2019-05-30T16:04:31.087Z,2.43
2019-05-30T16:09:46.693Z,2.50
2019-05-30T16:14:41.189Z,2.63
2019-05-30T16:19:45.046Z,2.57
2019-05-30T16:24:48.913Z,2.30
2019-05-30T16:29:52.778Z,2.90
2019-05-30T16:34:56.643Z,2.60
2019-05-30T16:40:06.266Z,2.20
2019-05-30T16:45:08.679Z,2.40
2019-05-30T16:50:15.014Z,2.30
2019-05-30T16:55:19.419Z,2.40
2019-05-30T17:00:23.487Z,2.47
2019-05-30T17:05:27.682Z,2.20
2019-05-30T17:10:33.284Z,2.23
2019-05-30T17:15:38.023Z,2.40
2019-05-30T17:20:41.977Z,2.47
2019-05-30T17:25:45.842Z,2.30
2019-05-30T17:30:50.270Z,2.60
2019-05-30T17:35:54.570Z,2.53
2019-05-30T17:40:58.781Z,2.30
2019-05-30T17:46:03.078Z,2.27
2019-05-30T17:51:07.042Z,2.50
2019-05-30T17:56:11.237Z,2.40
2019-05-30T18:01:15.207Z,2.50
2019-05-30T18:06:20.306Z,2.43
2019-05-30T18:11:24.968Z,2.50
2019-05-30T18:16:29.310Z,2.30
2019-05-30T18:21:33.215Z,2.40
2019-05-30T18:26:37.084Z,2.17
2019-05-30T18:31:41.611Z,2.40
2019-05-30T18:36:45.826Z,2.37
2019-05-30T18:41:50.266Z,2.60
2019-05-30T18:46:54.795Z,2.53
2019-05-30T18:51:59.045Z,2.60
2019-05-30T18:57:02.929Z,2.65
2019-05-30T19:02:07.439Z,2.73
2019-05-30T19:07:11.520Z,2.73
2019-05-30T19:12:15.694Z,2.70
2019-05-30T19:17:20.237Z,2.57
2019-05-30T19:22:24.190Z,2.67
2019-05-30T19:27:28.731Z,2.80
2019-05-30T19:32:35.079Z,2.50
2019-05-30T19:37:39.097Z,2.20
2019-05-30T19:42:43.394Z,2.20
2019-05-30T19:47:47.839Z,2.33
2019-05-30T19:52:52.150Z,2.57
2019-05-30T19:57:56.703Z,2.50
2019-05-30T20:03:02.439Z,2.53
2019-05-30T20:08:06.506Z,2.40
2019-05-30T20:13:10.770Z,2.60
2019-05-30T20:18:15.386Z,2.63
2019-05-30T20:23:19.343Z,2.70
2019-05-30T20:28:23.484Z,2.47
2019-05-30T20:33:27.661Z,2.70
2019-05-30T20:38:31.978Z,2.80
2019-05-30T20:43:36.969Z,2.77
2019-05-30T20:48:43.616Z,2.57
2019-05-30T20:53:47.616Z,2.63
2019-05-30T20:58:51.971Z,3.00
2019-05-30T21:03:56.101Z,2.47
2019-05-30T21:09:00.134Z,2.60
2019-05-30T21:14:04.267Z,2.80
2019-05-30T21:19:08.134Z,2.60
2019-05-30T21:24:12.323Z,2.60
2019-05-30T21:29:16.846Z,2.67
2019-05-30T21:34:21.552Z,2.93
2019-05-30T21:39:25.673Z,2.73
2019-05-30T21:44:29.531Z,2.47
2019-05-30T21:49:34.031Z,2.73
2019-05-30T21:54:39.680Z,2.50
2019-05-30T21:59:44.306Z,2.73
2019-05-30T22:04:48.697Z,2.93
2019-05-30T22:09:53.594Z,2.67
2019-05-30T22:14:57.458Z,3.10
2019-05-30T22:20:01.628Z,3.10
2019-05-30T22:25:07.242Z,2.90
2019-05-30T22:30:11.874Z,3.00
2019-05-30T22:35:16.138Z,2.67
2019-05-30T22:40:20.005Z,3.20
2019-05-30T22:45:24.267Z,3.07
2019-05-30T22:50:28.799Z,3.07
2019-05-30T22:55:33.097Z,3.07
2019-05-30T23:00:37.179Z,3.27
2019-05-30T23:05:41.629Z,3.10
2019-05-30T23:10:46.130Z,3.40
2019-05-30T23:15:50.158Z,3.23
2019-05-30T23:20:54.838Z,3.33
2019-05-30T23:25:59.195Z,2.97
2019-05-30T23:31:03.479Z,2.93
2019-05-30T23:36:07.791Z,3.10
2019-05-30T23:41:11.730Z,3.00
2019-05-30T23:46:15.601Z,2.80
2019-05-30T23:51:19.817Z,2.97
2019-05-30T23:56:23.994Z,2.63
